sensor_id;sensor_type;location;lat;lon;timestamp;temperature;humidity
75786;DHT22;64402;44.708;37.644;2023-02-28T00:01:29;7.45;79.85
75786;DHT22;64402;44.708;37.644;2023-02-28T00:03:56;7.41;79.86
75786;DHT22;64402;44.708;37.644;2023-02-28T00:06:23;7.35;80.00
75786;DHT22;64402;44.708;37.644;2023-02-28T00:08:50;7.28;80.20
75786;DHT22;64402;44.708;37.644;2023-02-28T00:11:16;7.27;80.54
75786;DHT22;64402;44.708;37.644;2023-02-28T00:13:45;7.19;80.05
75786;DHT22;64402;44.708;37.644;2023-02-28T00:16:18;7.15;80.52
75786;DHT22;64402;44.708;37.644;2023-02-28T00:18:44;7.12;80.56
75786;DHT22;64402;44.708;37.644;2023-02-28T00:21:11;7.09;80.22
75786;DHT22;64402;44.708;37.644;2023-02-28T00:23:37;7.07;80.90
75786;DHT22;64402;44.708;37.644;2023-02-28T00:26:04;7.08;80.56
75786;DHT22;64402;44.708;37.644;2023-02-28T00:28:31;7.08;80.26
75786;DHT22;64402;44.708;37.644;2023-02-28T00:30:57;7.07;79.85
75786;DHT22;64402;44.708;37.644;2023-02-28T00:33:26;7.05;80.28
75786;DHT22;64402;44.708;37.644;2023-02-28T00:36:05;7.08;80.20
75786;DHT22;64402;44.708;37.644;2023-02-28T00:38:32;7.09;79.97
75786;DHT22;64402;44.708;37.644;2023-02-28T00:40:58;7.03;79.86
75786;DHT22;64402;44.708;37.644;2023-02-28T00:43:34;7.01;80.10
75786;DHT22;64402;44.708;37.644;2023-02-28T00:46:01;7.01;79.99
75786;DHT22;64402;44.708;37.644;2023-02-28T00:48:28;6.97;80.27
75786;DHT22;64402;44.708;37.644;2023-02-28T00:50:54;6.93;80.07
75786;DHT22;64402;44.708;37.644;2023-02-28T00:53:21;6.90;80.20
75786;DHT22;64402;44.708;37.644;2023-02-28T00:55:49;6.86;80.58
75786;DHT22;64402;44.708;37.644;2023-02-28T00:58:16;6.81;80.10
75786;DHT22;64402;44.708;37.644;2023-02-28T01:00:42;6.74;80.34
75786;DHT22;64402;44.708;37.644;2023-02-28T01:03:08;6.71;80.94
75786;DHT22;64402;44.708;37.644;2023-02-28T01:05:35;6.67;80.70
75786;DHT22;64402;44.708;37.644;2023-02-28T01:08:01;6.65;80.98
75786;DHT22;64402;44.708;37.644;2023-02-28T01:10:28;6.63;81.03
75786;DHT22;64402;44.708;37.644;2023-02-28T01:12:57;6.70;81.36
75786;DHT22;64402;44.708;37.644;2023-02-28T01:15:24;6.67;81.14
75786;DHT22;64402;44.708;37.644;2023-02-28T01:17:53;6.65;81.19
75786;DHT22;64402;44.708;37.644;2023-02-28T01:20:19;6.54;81.14
75786;DHT22;64402;44.708;37.644;2023-02-28T01:22:46;6.49;81.48
75786;DHT22;64402;44.708;37.644;2023-02-28T01:25:13;6.37;82.07
75786;DHT22;64402;44.708;37.644;2023-02-28T01:27:39;6.34;82.39
75786;DHT22;64402;44.708;37.644;2023-02-28T01:30:07;6.40;82.07
75786;DHT22;64402;44.708;37.644;2023-02-28T01:32:35;6.26;82.12
75786;DHT22;64402;44.708;37.644;2023-02-28T01:35:02;6.27;82.34
75786;DHT22;64402;44.708;37.644;2023-02-28T01:37:29;6.31;82.28
75786;DHT22;64402;44.708;37.644;2023-02-28T01:39:56;6.35;82.25
75786;DHT22;64402;44.708;37.644;2023-02-28T01:42:22;6.35;82.07
75786;DHT22;64402;44.708;37.644;2023-02-28T01:45:00;6.35;81.78
75786;DHT22;64402;44.708;37.644;2023-02-28T01:47:32;6.37;82.14
75786;DHT22;64402;44.708;37.644;2023-02-28T01:50:01;6.31;81.95
75786;DHT22;64402;44.708;37.644;2023-02-28T01:52:28;6.22;82.21
75786;DHT22;64402;44.708;37.644;2023-02-28T01:54:57;6.22;82.29
75786;DHT22;64402;44.708;37.644;2023-02-28T01:57:32;6.22;82.56
75786;DHT22;64402;44.708;37.644;2023-02-28T02:00:13;6.21;82.80
75786;DHT22;64402;44.708;37.644;2023-02-28T02:02:43;6.19;82.33
75786;DHT22;64402;44.708;37.644;2023-02-28T02:05:16;6.13;82.30
75786;DHT22;64402;44.708;37.644;2023-02-28T02:07:47;6.14;82.20
75786;DHT22;64402;44.708;37.644;2023-02-28T02:10:35;6.08;82.82
75786;DHT22;64402;44.708;37.644;2023-02-28T02:15:54;6.06;83.10
75786;DHT22;64402;44.708;37.644;2023-02-28T02:21:45;6.11;83.38
75786;DHT22;64402;44.708;37.644;2023-02-28T02:41:09;6.13;82.91
75786;DHT22;64402;44.708;37.644;2023-02-28T02:43:51;6.13;82.92
75786;DHT22;64402;44.708;37.644;2023-02-28T02:46:42;6.13;82.84
75786;DHT22;64402;44.708;37.644;2023-02-28T02:49:16;6.06;82.48
75786;DHT22;64402;44.708;37.644;2023-02-28T02:52:05;6.08;82.64
75786;DHT22;64402;44.708;37.644;2023-02-28T02:54:44;6.07;82.74
75786;DHT22;64402;44.708;37.644;2023-02-28T02:57:17;6.02;82.71
75786;DHT22;64402;44.708;37.644;2023-02-28T02:59:46;6.02;83.18
75786;DHT22;64402;44.708;37.644;2023-02-28T03:02:15;5.96;82.07
75786;DHT22;64402;44.708;37.644;2023-02-28T03:04:46;5.94;82.42
75786;DHT22;64402;44.708;37.644;2023-02-28T03:07:14;5.93;82.66
75786;DHT22;64402;44.708;37.644;2023-02-28T03:09:54;5.93;82.97
75786;DHT22;64402;44.708;37.644;2023-02-28T03:12:24;5.95;82.92
75786;DHT22;64402;44.708;37.644;2023-02-28T03:15:37;5.92;82.77
75786;DHT22;64402;44.708;37.644;2023-02-28T03:18:01;5.91;83.07
75786;DHT22;64402;44.708;37.644;2023-02-28T03:20:57;5.93;83.26
75786;DHT22;64402;44.708;37.644;2023-02-28T03:26:23;5.89;82.35
75786;DHT22;64402;44.708;37.644;2023-02-28T03:31:43;5.81;82.59
75786;DHT22;64402;44.708;37.644;2023-02-28T03:34:16;5.79;82.88
75786;DHT22;64402;44.708;37.644;2023-02-28T03:36:48;5.78;83.89
75786;DHT22;64402;44.708;37.644;2023-02-28T03:39:21;5.74;83.76
75786;DHT22;64402;44.708;37.644;2023-02-28T03:41:53;5.70;83.56
75786;DHT22;64402;44.708;37.644;2023-02-28T03:44:47;5.77;84.39
75786;DHT22;64402;44.708;37.644;2023-02-28T03:52:38;5.71;83.59
75786;DHT22;64402;44.708;37.644;2023-02-28T03:55:10;5.68;83.79
75786;DHT22;64402;44.708;37.644;2023-02-28T04:00:23;5.65;83.70
75786;DHT22;64402;44.708;37.644;2023-02-28T04:02:51;5.56;83.47
75786;DHT22;64402;44.708;37.644;2023-02-28T04:05:19;5.41;83.68
75786;DHT22;64402;44.708;37.644;2023-02-28T04:07:45;5.38;84.18
75786;DHT22;64402;44.708;37.644;2023-02-28T04:10:13;5.42;84.56
75786;DHT22;64402;44.708;37.644;2023-02-28T04:12:39;5.46;84.26
75786;DHT22;64402;44.708;37.644;2023-02-28T04:15:06;5.46;84.73
75786;DHT22;64402;44.708;37.644;2023-02-28T04:17:33;5.47;84.39
75786;DHT22;64402;44.708;37.644;2023-02-28T04:19:59;5.49;84.60
75786;DHT22;64402;44.708;37.644;2023-02-28T04:22:26;5.54;84.75
75786;DHT22;64402;44.708;37.644;2023-02-28T04:24:52;5.60;84.55
75786;DHT22;64402;44.708;37.644;2023-02-28T04:27:20;5.32;82.65
75786;DHT22;64402;44.708;37.644;2023-02-28T04:29:46;5.28;84.00
75786;DHT22;64402;44.708;37.644;2023-02-28T04:32:13;5.34;84.48
75786;DHT22;64402;44.708;37.644;2023-02-28T04:34:39;5.30;83.54
75786;DHT22;64402;44.708;37.644;2023-02-28T04:37:06;5.32;84.16
75786;DHT22;64402;44.708;37.644;2023-02-28T04:39:36;5.47;84.12
75786;DHT22;64402;44.708;37.644;2023-02-28T04:42:03;5.60;84.16
75786;DHT22;64402;44.708;37.644;2023-02-28T04:44:29;5.61;83.14
75786;DHT22;64402;44.708;37.644;2023-02-28T04:46:56;5.69;83.56
75786;DHT22;64402;44.708;37.644;2023-02-28T04:49:22;5.74;84.44
75786;DHT22;64402;44.708;37.644;2023-02-28T04:51:48;5.76;83.26
75786;DHT22;64402;44.708;37.644;2023-02-28T04:54:15;5.91;83.17
75786;DHT22;64402;44.708;37.644;2023-02-28T04:56:44;6.07;82.63
75786;DHT22;64402;44.708;37.644;2023-02-28T04:59:10;6.17;82.03
75786;DHT22;64402;44.708;37.644;2023-02-28T05:01:37;6.30;82.54
75786;DHT22;64402;44.708;37.644;2023-02-28T05:04:04;6.22;81.05
75786;DHT22;64402;44.708;37.644;2023-02-28T05:06:32;6.29;81.49
75786;DHT22;64402;44.708;37.644;2023-02-28T05:08:59;6.43;81.24
75786;DHT22;64402;44.708;37.644;2023-02-28T05:11:28;6.60;81.56
75786;DHT22;64402;44.708;37.644;2023-02-28T05:13:59;6.81;81.59
75786;DHT22;64402;44.708;37.644;2023-02-28T05:16:26;6.97;81.03
75786;DHT22;64402;44.708;37.644;2023-02-28T05:18:52;7.14;80.45
75786;DHT22;64402;44.708;37.644;2023-02-28T05:21:34;7.30;80.17
75786;DHT22;64402;44.708;37.644;2023-02-28T05:24:04;7.29;79.91
75786;DHT22;64402;44.708;37.644;2023-02-28T05:26:34;7.43;79.02
75786;DHT22;64402;44.708;37.644;2023-02-28T05:29:01;7.58;78.73
75786;DHT22;64402;44.708;37.644;2023-02-28T05:31:27;7.73;78.27
75786;DHT22;64402;44.708;37.644;2023-02-28T05:33:53;7.62;78.43
75786;DHT22;64402;44.708;37.644;2023-02-28T05:36:21;7.73;78.79
75786;DHT22;64402;44.708;37.644;2023-02-28T05:38:48;7.86;78.86
75786;DHT22;64402;44.708;37.644;2023-02-28T05:41:15;7.75;78.73
75786;DHT22;64402;44.708;37.644;2023-02-28T05:43:42;7.94;78.43
75786;DHT22;64402;44.708;37.644;2023-02-28T05:46:10;8.17;78.34
75786;DHT22;64402;44.708;37.644;2023-02-28T05:48:38;8.38;77.72
75786;DHT22;64402;44.708;37.644;2023-02-28T05:51:05;8.59;78.02
75786;DHT22;64402;44.708;37.644;2023-02-28T05:53:32;8.74;76.57
75786;DHT22;64402;44.708;37.644;2023-02-28T05:55:59;8.91;76.30
75786;DHT22;64402;44.708;37.644;2023-02-28T05:58:26;9.10;75.31
75786;DHT22;64402;44.708;37.644;2023-02-28T06:00:57;9.26;74.89
75786;DHT22;64402;44.708;37.644;2023-02-28T06:03:24;9.33;75.34
75786;DHT22;64402;44.708;37.644;2023-02-28T06:05:50;9.42;74.89
75786;DHT22;64402;44.708;37.644;2023-02-28T06:08:17;9.30;74.96
75786;DHT22;64402;44.708;37.644;2023-02-28T06:10:44;9.47;74.81
75786;DHT22;64402;44.708;37.644;2023-02-28T06:13:11;9.67;74.28
75786;DHT22;64402;44.708;37.644;2023-02-28T06:15:38;9.88;73.67
75786;DHT22;64402;44.708;37.644;2023-02-28T06:18:05;9.94;73.22
75786;DHT22;64402;44.708;37.644;2023-02-28T06:20:31;10.11;73.13
75786;DHT22;64402;44.708;37.644;2023-02-28T06:22:58;10.27;71.89
75786;DHT22;64402;44.708;37.644;2023-02-28T06:25:26;10.56;70.73
75786;DHT22;64402;44.708;37.644;2023-02-28T06:27:54;10.79;70.88
75786;DHT22;64402;44.708;37.644;2023-02-28T06:30:21;10.99;69.03
75786;DHT22;64402;44.708;37.644;2023-02-28T06:32:51;11.09;69.55
75786;DHT22;64402;44.708;37.644;2023-02-28T06:35:18;11.08;68.71
75786;DHT22;64402;44.708;37.644;2023-02-28T06:37:44;11.15;68.81
75786;DHT22;64402;44.708;37.644;2023-02-28T06:40:11;11.18;68.79
75786;DHT22;64402;44.708;37.644;2023-02-28T06:42:39;11.49;67.81
75786;DHT22;64402;44.708;37.644;2023-02-28T06:45:05;11.71;66.61
75786;DHT22;64402;44.708;37.644;2023-02-28T06:47:39;12.00;65.76
75786;DHT22;64402;44.708;37.644;2023-02-28T06:50:08;12.29;64.74
75786;DHT22;64402;44.708;37.644;2023-02-28T06:52:35;12.75;62.94
75786;DHT22;64402;44.708;37.644;2023-02-28T06:55:06;12.95;61.96
75786;DHT22;64402;44.708;37.644;2023-02-28T06:57:34;12.69;64.24
75786;DHT22;64402;44.708;37.644;2023-02-28T07:00:05;12.46;65.42
75786;DHT22;64402;44.708;37.644;2023-02-28T07:02:35;12.64;64.96
75786;DHT22;64402;44.708;37.644;2023-02-28T07:05:01;12.84;64.61
75786;DHT22;64402;44.708;37.644;2023-02-28T07:07:28;12.99;63.15
75786;DHT22;64402;44.708;37.644;2023-02-28T07:09:54;13.21;62.20
75786;DHT22;64402;44.708;37.644;2023-02-28T07:12:20;13.44;59.80
75786;DHT22;64402;44.708;37.644;2023-02-28T07:14:47;13.55;60.12
75786;DHT22;64402;44.708;37.644;2023-02-28T07:17:13;13.67;59.38
75786;DHT22;64402;44.708;37.644;2023-02-28T07:19:40;13.76;58.40
75786;DHT22;64402;44.708;37.644;2023-02-28T07:22:06;13.84;58.98
75786;DHT22;64402;44.708;37.644;2023-02-28T07:24:33;13.94;58.24
75786;DHT22;64402;44.708;37.644;2023-02-28T07:26:59;13.96;56.81
75786;DHT22;64402;44.708;37.644;2023-02-28T07:29:26;14.19;55.19
75786;DHT22;64402;44.708;37.644;2023-02-28T07:31:53;14.22;55.60
75786;DHT22;64402;44.708;37.644;2023-02-28T07:34:20;14.12;54.91
75786;DHT22;64402;44.708;37.644;2023-02-28T07:36:47;14.04;54.83
75786;DHT22;64402;44.708;37.644;2023-02-28T07:39:13;14.05;55.15
75786;DHT22;64402;44.708;37.644;2023-02-28T07:41:40;14.19;54.52
75786;DHT22;64402;44.708;37.644;2023-02-28T07:44:10;14.36;54.00
75786;DHT22;64402;44.708;37.644;2023-02-28T07:46:37;14.44;54.47
75786;DHT22;64402;44.708;37.644;2023-02-28T07:49:05;14.34;53.81
75786;DHT22;64402;44.708;37.644;2023-02-28T07:51:32;14.49;55.16
75786;DHT22;64402;44.708;37.644;2023-02-28T07:53:58;14.54;53.93
75786;DHT22;64402;44.708;37.644;2023-02-28T07:56:25;14.71;55.09
75786;DHT22;64402;44.708;37.644;2023-02-28T07:58:51;14.89;55.01
75786;DHT22;64402;44.708;37.644;2023-02-28T08:01:18;15.06;54.74
75786;DHT22;64402;44.708;37.644;2023-02-28T08:03:45;15.19;54.68
75786;DHT22;64402;44.708;37.644;2023-02-28T08:06:17;15.26;52.97
75786;DHT22;64402;44.708;37.644;2023-02-28T08:08:45;15.26;54.30
75786;DHT22;64402;44.708;37.644;2023-02-28T08:11:12;15.32;54.28
75786;DHT22;64402;44.708;37.644;2023-02-28T08:13:39;15.29;54.30
75786;DHT22;64402;44.708;37.644;2023-02-28T08:16:05;15.39;52.97
75786;DHT22;64402;44.708;37.644;2023-02-28T08:18:32;15.56;53.86
75786;DHT22;64402;44.708;37.644;2023-02-28T08:20:58;15.69;52.52
75786;DHT22;64402;44.708;37.644;2023-02-28T08:23:25;15.80;53.36
75786;DHT22;64402;44.708;37.644;2023-02-28T08:25:55;15.83;52.56
75786;DHT22;64402;44.708;37.644;2023-02-28T08:28:22;15.82;51.17
75786;DHT22;64402;44.708;37.644;2023-02-28T08:30:49;15.97;51.18
75786;DHT22;64402;44.708;37.644;2023-02-28T08:33:15;15.95;49.80
75786;DHT22;64402;44.708;37.644;2023-02-28T08:35:42;15.73;50.47
75786;DHT22;64402;44.708;37.644;2023-02-28T08:38:08;15.40;51.11
75786;DHT22;64402;44.708;37.644;2023-02-28T08:40:35;14.97;51.56
75786;DHT22;64402;44.708;37.644;2023-02-28T08:43:01;14.79;52.14
75786;DHT22;64402;44.708;37.644;2023-02-28T08:45:27;14.70;52.75
75786;DHT22;64402;44.708;37.644;2023-02-28T08:47:55;14.77;52.75
75786;DHT22;64402;44.708;37.644;2023-02-28T08:50:22;14.81;52.54
75786;DHT22;64402;44.708;37.644;2023-02-28T08:52:49;14.99;52.42
75786;DHT22;64402;44.708;37.644;2023-02-28T08:55:15;14.95;52.14
75786;DHT22;64402;44.708;37.644;2023-02-28T08:57:42;14.88;51.98
75786;DHT22;64402;44.708;37.644;2023-02-28T09:00:09;14.95;51.85
75786;DHT22;64402;44.708;37.644;2023-02-28T09:02:38;15.01;51.33
75786;DHT22;64402;44.708;37.644;2023-02-28T09:05:05;15.22;50.87
75786;DHT22;64402;44.708;37.644;2023-02-28T09:07:31;15.13;51.09
75786;DHT22;64402;44.708;37.644;2023-02-28T09:09:58;15.26;50.59
75786;DHT22;64402;44.708;37.644;2023-02-28T09:12:26;15.67;50.21
75786;DHT22;64402;44.708;37.644;2023-02-28T09:14:53;15.78;49.69
75786;DHT22;64402;44.708;37.644;2023-02-28T09:17:20;15.97;49.56
75786;DHT22;64402;44.708;37.644;2023-02-28T09:19:48;16.01;49.31
75786;DHT22;64402;44.708;37.644;2023-02-28T09:22:15;15.72;50.28
75786;DHT22;64402;44.708;37.644;2023-02-28T09:24:41;15.87;49.86
75786;DHT22;64402;44.708;37.644;2023-02-28T09:27:08;16.02;49.62
75786;DHT22;64402;44.708;37.644;2023-02-28T09:29:34;16.59;48.31
75786;DHT22;64402;44.708;37.644;2023-02-28T09:32:02;17.14;46.94
75786;DHT22;64402;44.708;37.644;2023-02-28T09:34:29;16.98;47.62
75786;DHT22;64402;44.708;37.644;2023-02-28T09:36:58;16.71;48.52
75786;DHT22;64402;44.708;37.644;2023-02-28T09:39:24;16.60;48.44
75786;DHT22;64402;44.708;37.644;2023-02-28T09:41:55;17.16;47.82
75786;DHT22;64402;44.708;37.644;2023-02-28T09:44:40;17.69;45.28
75786;DHT22;64402;44.708;37.644;2023-02-28T09:47:24;19.20;41.75
75786;DHT22;64402;44.708;37.644;2023-02-28T09:49:51;20.86;38.81
75786;DHT22;64402;44.708;37.644;2023-02-28T09:52:27;22.35;34.98
75786;DHT22;64402;44.708;37.644;2023-02-28T09:54:54;22.49;35.18
75786;DHT22;64402;44.708;37.644;2023-02-28T09:57:39;22.32;33.73
75786;DHT22;64402;44.708;37.644;2023-02-28T10:00:18;21.91;35.34
75786;DHT22;64402;44.708;37.644;2023-02-28T10:09:14;21.69;35.87
75786;DHT22;64402;44.708;37.644;2023-02-28T10:11:44;21.66;36.29
75786;DHT22;64402;44.708;37.644;2023-02-28T10:16:52;21.32;36.40
75786;DHT22;64402;44.708;37.644;2023-02-28T10:19:33;21.64;36.86
75786;DHT22;64402;44.708;37.644;2023-02-28T10:22:11;21.65;35.85
75786;DHT22;64402;44.708;37.644;2023-02-28T10:24:45;21.81;36.22
75786;DHT22;64402;44.708;37.644;2023-02-28T10:27:22;21.54;35.78
75786;DHT22;64402;44.708;37.644;2023-02-28T10:29:54;22.38;34.41
75786;DHT22;64402;44.708;37.644;2023-02-28T10:32:23;21.66;36.37
75786;DHT22;64402;44.708;37.644;2023-02-28T10:37:42;23.03;33.93
75786;DHT22;64402;44.708;37.644;2023-02-28T10:42:56;22.68;33.96
75786;DHT22;64402;44.708;37.644;2023-02-28T10:45:23;23.23;33.60
75786;DHT22;64402;44.708;37.644;2023-02-28T10:47:59;22.71;34.79
75786;DHT22;64402;44.708;37.644;2023-02-28T10:50:35;22.69;34.60
75786;DHT22;64402;44.708;37.644;2023-02-28T10:58:47;22.34;35.76
75786;DHT22;64402;44.708;37.644;2023-02-28T11:03:52;23.50;34.09
75786;DHT22;64402;44.708;37.644;2023-02-28T11:06:24;23.50;33.51
75786;DHT22;64402;44.708;37.644;2023-02-28T11:08:57;23.74;33.48
75786;DHT22;64402;44.708;37.644;2023-02-28T11:11:26;24.59;31.48
75786;DHT22;64402;44.708;37.644;2023-02-28T11:13:55;24.60;31.91
75786;DHT22;64402;44.708;37.644;2023-02-28T11:16:32;24.57;31.18
75786;DHT22;64402;44.708;37.644;2023-02-28T11:18:59;22.99;34.57
75786;DHT22;64402;44.708;37.644;2023-02-28T11:21:28;22.50;36.64
75786;DHT22;64402;44.708;37.644;2023-02-28T11:24:15;23.62;34.38
75786;DHT22;64402;44.708;37.644;2023-02-28T11:26:47;23.36;35.67
75786;DHT22;64402;44.708;37.644;2023-02-28T11:29:24;23.86;34.92
75786;DHT22;64402;44.708;37.644;2023-02-28T11:32:13;24.92;33.02
75786;DHT22;64402;44.708;37.644;2023-02-28T11:34:40;25.20;32.16
75786;DHT22;64402;44.708;37.644;2023-02-28T11:37:18;25.29;31.98
75786;DHT22;64402;44.708;37.644;2023-02-28T11:39:45;23.51;35.50
75786;DHT22;64402;44.708;37.644;2023-02-28T11:45:07;21.01;41.10
75786;DHT22;64402;44.708;37.644;2023-02-28T11:50:41;18.52;47.54
75786;DHT22;64402;44.708;37.644;2023-02-28T11:56:11;17.32;51.69
75786;DHT22;64402;44.708;37.644;2023-02-28T11:58:52;17.16;51.21
75786;DHT22;64402;44.708;37.644;2023-02-28T12:01:34;17.32;52.60
75786;DHT22;64402;44.708;37.644;2023-02-28T12:09:57;17.55;51.53
75786;DHT22;64402;44.708;37.644;2023-02-28T12:15:32;17.22;53.04
75786;DHT22;64402;44.708;37.644;2023-02-28T12:20:52;17.67;51.35
75786;DHT22;64402;44.708;37.644;2023-02-28T12:26:15;19.82;45.78
75786;DHT22;64402;44.708;37.644;2023-02-28T12:28:49;21.15;41.31
75786;DHT22;64402;44.708;37.644;2023-02-28T12:31:38;21.65;39.97
75786;DHT22;64402;44.708;37.644;2023-02-28T12:34:19;22.06;38.04
75786;DHT22;64402;44.708;37.644;2023-02-28T12:36:51;22.01;38.14
75786;DHT22;64402;44.708;37.644;2023-02-28T12:39:23;22.12;37.53
75786;DHT22;64402;44.708;37.644;2023-02-28T12:42:41;21.23;39.36
75786;DHT22;64402;44.708;37.644;2023-02-28T12:44:52;20.25;41.84
75786;DHT22;64402;44.708;37.644;2023-02-28T12:47:19;19.88;42.94
75786;DHT22;64402;44.708;37.644;2023-02-28T12:50:02;19.10;44.77
75786;DHT22;64402;44.708;37.644;2023-02-28T12:52:58;18.12;46.89
75786;DHT22;64402;44.708;37.644;2023-02-28T12:58:43;16.58;52.29
75786;DHT22;64402;44.708;37.644;2023-02-28T13:01:15;15.95;53.56
75786;DHT22;64402;44.708;37.644;2023-02-28T13:09:59;14.74;57.60
75786;DHT22;64402;44.708;37.644;2023-02-28T13:12:26;14.59;58.61
75786;DHT22;64402;44.708;37.644;2023-02-28T13:17:40;14.45;58.85
75786;DHT22;64402;44.708;37.644;2023-02-28T13:20:37;14.37;59.45
75786;DHT22;64402;44.708;37.644;2023-02-28T13:23:55;14.40;59.24
75786;DHT22;64402;44.708;37.644;2023-02-28T13:29:35;14.36;59.48
75786;DHT22;64402;44.708;37.644;2023-02-28T13:34:42;13.76;61.06
75786;DHT22;64402;44.708;37.644;2023-02-28T13:39:55;13.47;62.81
75786;DHT22;64402;44.708;37.644;2023-02-28T13:42:22;13.45;62.75
75786;DHT22;64402;44.708;37.644;2023-02-28T13:47:36;13.39;62.31
75786;DHT22;64402;44.708;37.644;2023-02-28T13:50:35;14.03;60.27
75786;DHT22;64402;44.708;37.644;2023-02-28T14:01:17;12.65;64.36
75786;DHT22;64402;44.708;37.644;2023-02-28T14:04:37;12.40;65.33
75786;DHT22;64402;44.708;37.644;2023-02-28T14:06:52;11.99;66.95
75786;DHT22;64402;44.708;37.644;2023-02-28T14:09:26;11.76;67.13
75786;DHT22;64402;44.708;37.644;2023-02-28T14:11:53;11.51;68.13
75786;DHT22;64402;44.708;37.644;2023-02-28T14:17:05;11.25;69.22
75786;DHT22;64402;44.708;37.644;2023-02-28T14:19:35;11.07;69.72
75786;DHT22;64402;44.708;37.644;2023-02-28T14:33:31;10.49;71.51
75786;DHT22;64402;44.708;37.644;2023-02-28T14:36:08;10.50;71.48
75786;DHT22;64402;44.708;37.644;2023-02-28T14:38:47;10.41;71.46
75786;DHT22;64402;44.708;37.644;2023-02-28T14:41:27;10.31;71.76
75786;DHT22;64402;44.708;37.644;2023-02-28T14:44:00;10.31;72.01
75786;DHT22;64402;44.708;37.644;2023-02-28T14:46:35;10.33;71.85
75786;DHT22;64402;44.708;37.644;2023-02-28T14:49:07;10.34;71.23
75786;DHT22;64402;44.708;37.644;2023-02-28T14:51:38;10.25;71.98
75786;DHT22;64402;44.708;37.644;2023-02-28T14:54:04;10.16;72.07
75786;DHT22;64402;44.708;37.644;2023-02-28T14:56:38;10.19;72.30
75786;DHT22;64402;44.708;37.644;2023-02-28T14:59:39;9.88;72.96
75786;DHT22;64402;44.708;37.644;2023-02-28T15:02:17;9.72;73.87
75786;DHT22;64402;44.708;37.644;2023-02-28T15:05:37;9.54;74.05
75786;DHT22;64402;44.708;37.644;2023-02-28T15:07:38;9.53;74.32
75786;DHT22;64402;44.708;37.644;2023-02-28T15:10:20;9.41;74.12
75786;DHT22;64402;44.708;37.644;2023-02-28T15:12:58;9.17;74.50
75786;DHT22;64402;44.708;37.644;2023-02-28T15:18:05;8.92;75.44
75786;DHT22;64402;44.708;37.644;2023-02-28T15:20:43;8.90;75.18
75786;DHT22;64402;44.708;37.644;2023-02-28T15:23:10;8.87;75.28
75786;DHT22;64402;44.708;37.644;2023-02-28T15:25:37;8.83;74.99
75786;DHT22;64402;44.708;37.644;2023-02-28T15:28:03;8.79;75.03
75786;DHT22;64402;44.708;37.644;2023-02-28T15:30:30;8.75;74.24
75786;DHT22;64402;44.708;37.644;2023-02-28T15:33:17;8.66;74.66
75786;DHT22;64402;44.708;37.644;2023-02-28T15:35:44;8.57;74.67
75786;DHT22;64402;44.708;37.644;2023-02-28T15:38:25;8.47;75.41
75786;DHT22;64402;44.708;37.644;2023-02-28T15:40:54;8.32;75.15
75786;DHT22;64402;44.708;37.644;2023-02-28T15:43:30;8.24;76.08
75786;DHT22;64402;44.708;37.644;2023-02-28T15:46:02;8.23;75.85
75786;DHT22;64402;44.708;37.644;2023-02-28T15:48:55;8.17;76.07
75786;DHT22;64402;44.708;37.644;2023-02-28T15:51:36;8.15;76.09
75786;DHT22;64402;44.708;37.644;2023-02-28T15:54:06;8.06;76.11
75786;DHT22;64402;44.708;37.644;2023-02-28T15:56:38;8.03;76.18
75786;DHT22;64402;44.708;37.644;2023-02-28T15:59:06;8.01;76.59
75786;DHT22;64402;44.708;37.644;2023-02-28T16:01:35;8.01;76.07
75786;DHT22;64402;44.708;37.644;2023-02-28T16:04:14;7.90;76.30
75786;DHT22;64402;44.708;37.644;2023-02-28T16:07:01;7.77;77.23
75786;DHT22;64402;44.708;37.644;2023-02-28T16:09:28;7.68;77.23
75786;DHT22;64402;44.708;37.644;2023-02-28T16:11:56;7.57;78.18
75786;DHT22;64402;44.708;37.644;2023-02-28T16:14:27;7.44;78.43
75786;DHT22;64402;44.708;37.644;2023-02-28T16:17:01;7.39;78.63
75786;DHT22;64402;44.708;37.644;2023-02-28T16:19:28;7.38;78.76
75786;DHT22;64402;44.708;37.644;2023-02-28T16:21:55;7.29;78.74
75786;DHT22;64402;44.708;37.644;2023-02-28T16:24:22;7.27;78.98
75786;DHT22;64402;44.708;37.644;2023-02-28T16:26:49;7.23;79.17
75786;DHT22;64402;44.708;37.644;2023-02-28T16:29:25;7.20;79.21
75786;DHT22;64402;44.708;37.644;2023-02-28T16:31:53;7.20;79.11
75786;DHT22;64402;44.708;37.644;2023-02-28T16:34:19;7.25;79.14
75786;DHT22;64402;44.708;37.644;2023-02-28T16:36:47;7.26;78.76
75786;DHT22;64402;44.708;37.644;2023-02-28T16:39:14;7.28;79.08
75786;DHT22;64402;44.708;37.644;2023-02-28T16:41:43;7.25;78.80
75786;DHT22;64402;44.708;37.644;2023-02-28T16:44:21;7.20;78.73
75786;DHT22;64402;44.708;37.644;2023-02-28T16:46:50;7.19;78.97
75786;DHT22;64402;44.708;37.644;2023-02-28T16:49:16;7.12;78.85
75786;DHT22;64402;44.708;37.644;2023-02-28T16:51:42;7.04;79.14
75786;DHT22;64402;44.708;37.644;2023-02-28T16:54:08;6.94;79.53
75786;DHT22;64402;44.708;37.644;2023-02-28T16:56:34;6.88;79.87
75786;DHT22;64402;44.708;37.644;2023-02-28T16:59:02;6.78;79.88
75786;DHT22;64402;44.708;37.644;2023-02-28T17:01:29;6.68;80.52
75786;DHT22;64402;44.708;37.644;2023-02-28T17:03:56;6.70;80.73
75786;DHT22;64402;44.708;37.644;2023-02-28T17:06:25;6.68;80.64
75786;DHT22;64402;44.708;37.644;2023-02-28T17:08:52;6.63;80.30
75786;DHT22;64402;44.708;37.644;2023-02-28T17:11:18;6.58;80.24
75786;DHT22;64402;44.708;37.644;2023-02-28T17:13:47;6.50;80.72
75786;DHT22;64402;44.708;37.644;2023-02-28T17:16:30;6.48;80.81
75786;DHT22;64402;44.708;37.644;2023-02-28T17:18:58;6.46;80.72
75786;DHT22;64402;44.708;37.644;2023-02-28T17:21:25;6.54;80.30
75786;DHT22;64402;44.708;37.644;2023-02-28T17:23:51;6.52;80.18
75786;DHT22;64402;44.708;37.644;2023-02-28T17:26:20;6.44;80.51
75786;DHT22;64402;44.708;37.644;2023-02-28T17:28:47;6.36;80.88
75786;DHT22;64402;44.708;37.644;2023-02-28T17:31:14;6.30;80.88
75786;DHT22;64402;44.708;37.644;2023-02-28T17:33:40;6.28;81.30
75786;DHT22;64402;44.708;37.644;2023-02-28T17:36:20;6.22;81.43
75786;DHT22;64402;44.708;37.644;2023-02-28T17:38:52;6.21;81.59
75786;DHT22;64402;44.708;37.644;2023-02-28T17:41:19;6.28;81.27
75786;DHT22;64402;44.708;37.644;2023-02-28T17:43:45;6.30;81.08
75786;DHT22;64402;44.708;37.644;2023-02-28T17:46:17;6.31;81.10
75786;DHT22;64402;44.708;37.644;2023-02-28T17:48:47;6.34;80.95
75786;DHT22;64402;44.708;37.644;2023-02-28T17:51:14;6.37;80.75
75786;DHT22;64402;44.708;37.644;2023-02-28T17:53:40;6.34;80.84
75786;DHT22;64402;44.708;37.644;2023-02-28T17:56:20;6.35;80.73
75786;DHT22;64402;44.708;37.644;2023-02-28T17:58:52;6.34;80.85